sensor_id;sensor_type;location;lat;lon;timestamp;pressure;altitude;pressure_sealevel;temperature;humidity
66486;BME280;53303;47.476;8.084;2022-07-29T00:00:14;96377.19;;;23.88;51.62
66486;BME280;53303;47.476;8.084;2022-07-29T00:02:42;96362.75;;;23.84;51.68
66486;BME280;53303;47.476;8.084;2022-07-29T00:05:09;96363.75;;;23.86;51.66
66486;BME280;53303;47.476;8.084;2022-07-29T00:07:35;96367.31;;;23.87;51.78
66486;BME280;53303;47.476;8.084;2022-07-29T00:10:03;96364.53;;;23.81;51.66
66486;BME280;53303;47.476;8.084;2022-07-29T00:12:29;96360.47;;;23.82;51.70
66486;BME280;53303;47.476;8.084;2022-07-29T00:14:54;96358.44;;;23.83;51.61
66486;BME280;53303;47.476;8.084;2022-07-29T00:17:20;96349.34;;;23.82;51.47
66486;BME280;53303;47.476;8.084;2022-07-29T00:19:47;96344.25;;;23.75;51.49
66486;BME280;53303;47.476;8.084;2022-07-29T00:22:13;96347.53;;;23.79;51.61
66486;BME280;53303;47.476;8.084;2022-07-29T00:24:38;96354.91;;;23.71;51.73
66486;BME280;53303;47.476;8.084;2022-07-29T00:27:04;96352.13;;;23.71;51.56
66486;BME280;53303;47.476;8.084;2022-07-29T00:29:30;96352.88;;;23.71;51.64
66486;BME280;53303;47.476;8.084;2022-07-29T00:31:55;96347.56;;;23.73;51.75
66486;BME280;53303;47.476;8.084;2022-07-29T00:34:20;96356.16;;;23.75;51.79
66486;BME280;53303;47.476;8.084;2022-07-29T00:37:04;96342.25;;;23.70;51.90
66486;BME280;53303;47.476;8.084;2022-07-29T00:39:32;96343.00;;;23.70;51.83
66486;BME280;53303;47.476;8.084;2022-07-29T00:41:58;96340.19;;;23.70;51.98
66486;BME280;53303;47.476;8.084;2022-07-29T00:44:23;96349.06;;;23.74;51.90
66486;BME280;53303;47.476;8.084;2022-07-29T00:46:49;96347.78;;;23.75;51.74
66486;BME280;53303;47.476;8.084;2022-07-29T00:49:14;96341.22;;;23.73;51.99
66486;BME280;53303;47.476;8.084;2022-07-29T00:51:40;96338.44;;;23.73;52.03
66486;BME280;53303;47.476;8.084;2022-07-29T00:54:08;96334.13;;;23.72;52.15
66486;BME280;53303;47.476;8.084;2022-07-29T00:56:36;96336.41;;;23.73;52.08
66486;BME280;53303;47.476;8.084;2022-07-29T00:59:01;96334.38;;;23.74;52.05
66486;BME280;53303;47.476;8.084;2022-07-29T01:01:27;96330.88;;;23.62;52.11
66486;BME280;53303;47.476;8.084;2022-07-29T01:03:53;96344.50;;;23.71;52.14
66486;BME280;53303;47.476;8.084;2022-07-29T01:06:19;96346.28;;;23.69;52.16
66486;BME280;53303;47.476;8.084;2022-07-29T01:08:47;96348.31;;;23.68;52.21
66486;BME280;53303;47.476;8.084;2022-07-29T01:11:13;96341.22;;;23.62;52.21
66486;BME280;53303;47.476;8.084;2022-07-29T01:13:40;96347.56;;;23.68;52.16
66486;BME280;53303;47.476;8.084;2022-07-29T01:16:17;96351.09;;;23.68;51.97
66486;BME280;53303;47.476;8.084;2022-07-29T01:18:49;96348.81;;;23.67;52.18
66486;BME280;53303;47.476;8.084;2022-07-29T01:26:42;96340.50;;;23.55;52.31
66486;BME280;53303;47.476;8.084;2022-07-29T01:29:39;96348.59;;;23.59;52.62
66486;BME280;53303;47.476;8.084;2022-07-29T01:32:12;96341.50;;;23.58;52.37
66486;BME280;53303;47.476;8.084;2022-07-29T01:37:29;96342.25;;;23.64;52.26
66486;BME280;53303;47.476;8.084;2022-07-29T01:39:57;96346.03;;;23.67;52.53
66486;BME280;53303;47.476;8.084;2022-07-29T01:42:34;96346.53;;;23.65;52.24
66486;BME280;53303;47.476;8.084;2022-07-29T01:45:14;96351.13;;;23.63;52.53
66486;BME280;53303;47.476;8.084;2022-07-29T01:47:49;96360.22;;;23.63;52.44
66486;BME280;53303;47.476;8.084;2022-07-29T01:50:20;96358.72;;;23.62;52.74
66486;BME280;53303;47.476;8.084;2022-07-29T01:52:56;96362.78;;;23.61;52.66
66486;BME280;53303;47.476;8.084;2022-07-29T01:55:28;96357.22;;;23.55;52.68
66486;BME280;53303;47.476;8.084;2022-07-29T01:57:57;96367.09;;;23.62;52.56
66486;BME280;53303;47.476;8.084;2022-07-29T02:00:23;96361.50;;;23.62;52.47
66486;BME280;53303;47.476;8.084;2022-07-29T02:02:51;96343.53;;;23.57;52.56
66486;BME280;53303;47.476;8.084;2022-07-29T02:05:21;96347.84;;;23.59;52.62
66486;BME280;53303;47.476;8.084;2022-07-29T02:07:49;96342.50;;;23.61;52.60
66486;BME280;53303;47.476;8.084;2022-07-29T02:10:18;96325.03;;;23.54;52.73
66486;BME280;53303;47.476;8.084;2022-07-29T02:12:46;96330.59;;;23.54;52.83
66486;BME280;53303;47.476;8.084;2022-07-29T02:15:13;96320.25;;;23.55;52.66
66486;BME280;53303;47.476;8.084;2022-07-29T02:17:46;96325.31;;;23.56;52.67
66486;BME280;53303;47.476;8.084;2022-07-29T02:20:14;96329.84;;;23.60;52.70
66486;BME280;53303;47.476;8.084;2022-07-29T02:22:42;96327.06;;;23.60;52.90
66486;BME280;53303;47.476;8.084;2022-07-29T02:25:10;96323.00;;;23.61;52.95
66486;BME280;53303;47.476;8.084;2022-07-29T02:27:36;96327.31;;;23.62;52.94
66486;BME280;53303;47.476;8.084;2022-07-29T02:30:03;96327.84;;;23.60;53.03
66486;BME280;53303;47.476;8.084;2022-07-29T02:32:30;96325.06;;;23.60;53.36
66486;BME280;53303;47.476;8.084;2022-07-29T02:34:58;96326.03;;;23.63;53.39
66486;BME280;53303;47.476;8.084;2022-07-29T02:37:26;96332.88;;;23.62;53.29
66486;BME280;53303;47.476;8.084;2022-07-29T02:39:54;96343.25;;;23.61;53.59
66486;BME280;53303;47.476;8.084;2022-07-29T02:42:21;96329.34;;;23.61;53.82
66486;BME280;53303;47.476;8.084;2022-07-29T02:44:48;96334.94;;;23.55;53.81
66486;BME280;53303;47.476;8.084;2022-07-29T02:52:56;96345.56;;;23.51;53.86
66486;BME280;53303;47.476;8.084;2022-07-29T02:55:48;96339.25;;;23.56;53.86
66486;BME280;53303;47.476;8.084;2022-07-29T02:58:25;96327.06;;;23.54;53.89
66486;BME280;53303;47.476;8.084;2022-07-29T03:00:55;96329.84;;;23.54;53.74
66486;BME280;53303;47.476;8.084;2022-07-29T03:03:22;96314.66;;;23.49;53.69
66486;BME280;53303;47.476;8.084;2022-07-29T03:05:54;96320.50;;;23.57;53.50
66486;BME280;53303;47.476;8.084;2022-07-29T03:08:20;96324.03;;;23.57;53.67
66486;BME280;53303;47.476;8.084;2022-07-29T03:10:47;96327.56;;;23.58;53.65
66486;BME280;53303;47.476;8.084;2022-07-29T03:13:16;96313.66;;;23.52;53.55
66486;BME280;53303;47.476;8.084;2022-07-29T03:15:43;96318.47;;;23.57;53.67
66486;BME280;53303;47.476;8.084;2022-07-29T03:18:10;96324.03;;;23.57;53.59
66486;BME280;53303;47.476;8.084;2022-07-29T03:20:37;96323.28;;;23.57;53.53
66486;BME280;53303;47.476;8.084;2022-07-29T03:23:02;96328.09;;;23.56;53.57
66486;BME280;53303;47.476;8.084;2022-07-29T03:25:30;96315.19;;;23.53;53.66
66486;BME280;53303;47.476;8.084;2022-07-29T03:27:56;96311.66;;;23.53;53.81
66486;BME280;53303;47.476;8.084;2022-07-29T03:30:22;96320.25;;;23.55;53.84
66486;BME280;53303;47.476;8.084;2022-07-29T03:32:49;96323.78;;;23.55;53.90
66486;BME280;53303;47.476;8.084;2022-07-29T03:35:14;96326.56;;;23.55;54.05
66486;BME280;53303;47.476;8.084;2022-07-29T03:37:43;96328.09;;;23.56;54.00
66486;BME280;53303;47.476;8.084;2022-07-29T03:40:11;96334.19;;;23.55;53.83
66486;BME280;53303;47.476;8.084;2022-07-29T03:42:40;96322.25;;;23.49;53.68
66486;BME280;53303;47.476;8.084;2022-07-29T03:45:10;96324.53;;;23.50;53.70
66486;BME280;53303;47.476;8.084;2022-07-29T03:47:42;96339.50;;;23.53;53.60
66486;BME280;53303;47.476;8.084;2022-07-29T03:50:11;96339.25;;;23.56;53.54
66486;BME280;53303;47.476;8.084;2022-07-29T03:52:39;96330.63;;;23.49;53.62
66486;BME280;53303;47.476;8.084;2022-07-29T03:55:05;96325.81;;;23.49;53.53
66486;BME280;53303;47.476;8.084;2022-07-29T03:57:31;96337.19;;;23.57;53.66
66486;BME280;53303;47.476;8.084;2022-07-29T03:59:58;96334.94;;;23.55;53.61
66486;BME280;53303;47.476;8.084;2022-07-29T04:02:28;96326.81;;;23.52;53.84
66486;BME280;53303;47.476;8.084;2022-07-29T04:04:54;96335.69;;;23.56;53.80
66486;BME280;53303;47.476;8.084;2022-07-29T04:07:22;96329.34;;;23.55;53.62
66486;BME280;53303;47.476;8.084;2022-07-29T04:09:47;96328.09;;;23.51;53.60
66486;BME280;53303;47.476;8.084;2022-07-29T04:12:12;96327.81;;;23.54;53.78
66486;BME280;53303;47.476;8.084;2022-07-29T04:14:38;96333.41;;;23.54;53.81
66486;BME280;53303;47.476;8.084;2022-07-29T04:17:04;96336.19;;;23.54;53.69
66486;BME280;53303;47.476;8.084;2022-07-29T04:19:32;96333.66;;;23.51;53.48
66486;BME280;53303;47.476;8.084;2022-07-29T04:21:58;96332.16;;;23.50;53.83
66486;BME280;53303;47.476;8.084;2022-07-29T04:24:24;96329.63;;;23.46;54.11
66486;BME280;53303;47.476;8.084;2022-07-29T04:26:50;96343.03;;;23.53;54.00
66486;BME280;53303;47.476;8.084;2022-07-29T04:29:16;96339.72;;;23.49;54.03
66486;BME280;53303;47.476;8.084;2022-07-29T04:31:42;96351.16;;;23.51;54.07
66486;BME280;53303;47.476;8.084;2022-07-29T04:34:08;96332.91;;;23.45;53.96
66486;BME280;53303;47.476;8.084;2022-07-29T04:36:36;96348.38;;;23.51;53.95
66486;BME280;53303;47.476;8.084;2022-07-29T04:39:04;96344.28;;;23.52;54.01
66486;BME280;53303;47.476;8.084;2022-07-29T04:41:32;96318.50;;;23.46;53.81
66486;BME280;53303;47.476;8.084;2022-07-29T04:43:57;96325.28;;;23.51;53.70
66486;BME280;53303;47.476;8.084;2022-07-29T04:46:25;96331.91;;;23.53;53.88
66486;BME280;53303;47.476;8.084;2022-07-29T04:48:51;96335.94;;;23.52;53.78
66486;BME280;53303;47.476;8.084;2022-07-29T04:51:16;96337.22;;;23.51;53.74
66486;BME280;53303;47.476;8.084;2022-07-29T04:53:42;96344.78;;;23.51;54.08
66486;BME280;53303;47.476;8.084;2022-07-29T04:56:08;96339.47;;;23.47;53.99
66486;BME280;53303;47.476;8.084;2022-07-29T04:58:36;96346.84;;;23.50;54.22
66486;BME280;53303;47.476;8.084;2022-07-29T05:01:03;96344.03;;;23.50;54.24
66486;BME280;53303;47.476;8.084;2022-07-29T05:03:28;96356.44;;;23.49;54.19
66486;BME280;53303;47.476;8.084;2022-07-29T05:05:54;96359.75;;;23.48;54.23
66486;BME280;53303;47.476;8.084;2022-07-29T05:08:19;96360.78;;;23.45;54.25
66486;BME280;53303;47.476;8.084;2022-07-29T05:10:45;96344.31;;;23.41;54.37
66486;BME280;53303;47.476;8.084;2022-07-29T05:13:10;96359.50;;;23.51;54.41
66486;BME280;53303;47.476;8.084;2022-07-29T05:15:36;96357.47;;;23.46;54.34
66486;BME280;53303;47.476;8.084;2022-07-29T05:18:03;96356.22;;;23.53;54.74
66486;BME280;53303;47.476;8.084;2022-07-29T05:20:29;96363.78;;;23.52;54.72
66486;BME280;53303;47.476;8.084;2022-07-29T05:22:57;96361.78;;;23.53;54.82
66486;BME280;53303;47.476;8.084;2022-07-29T05:25:24;96357.72;;;23.48;54.99
66486;BME280;53303;47.476;8.084;2022-07-29T05:27:50;96366.84;;;23.49;55.24
66486;BME280;53303;47.476;8.084;2022-07-29T05:30:15;96368.59;;;23.52;54.92
66486;BME280;53303;47.476;8.084;2022-07-29T05:32:41;96374.44;;;23.54;55.30
66486;BME280;53303;47.476;8.084;2022-07-29T05:35:07;96375.72;;;23.53;55.31
66486;BME280;53303;47.476;8.084;2022-07-29T05:37:33;96363.28;;;23.48;55.24
66486;BME280;53303;47.476;8.084;2022-07-29T05:39:58;96370.88;;;23.53;55.53
66486;BME280;53303;47.476;8.084;2022-07-29T05:42:24;96364.03;;;23.54;55.69
66486;BME280;53303;47.476;8.084;2022-07-29T05:44:50;96362.03;;;23.55;55.60
66486;BME280;53303;47.476;8.084;2022-07-29T05:47:16;96356.72;;;23.51;55.79
66486;BME280;53303;47.476;8.084;2022-07-29T05:49:42;96362.53;;;23.53;55.91
66486;BME280;53303;47.476;8.084;2022-07-29T05:52:09;96361.00;;;23.52;55.94
66486;BME280;53303;47.476;8.084;2022-07-29T05:54:35;96359.25;;;23.55;56.26
66486;BME280;53303;47.476;8.084;2022-07-29T05:57:01;96357.72;;;23.48;56.49
66486;BME280;53303;47.476;8.084;2022-07-29T05:59:27;96358.47;;;23.54;56.35
66486;BME280;53303;47.476;8.084;2022-07-29T06:01:52;96371.13;;;23.55;56.77
66486;BME280;53303;47.476;8.084;2022-07-29T06:04:17;96370.63;;;23.57;56.45
66486;BME280;53303;47.476;8.084;2022-07-29T06:06:45;96377.44;;;23.62;56.19
66486;BME280;53303;47.476;8.084;2022-07-29T06:09:11;96371.38;;;23.63;56.22
66486;BME280;53303;47.476;8.084;2022-07-29T06:11:36;96379.97;;;23.65;56.45
66486;BME280;53303;47.476;8.084;2022-07-29T06:14:04;96379.97;;;23.65;57.47
66486;BME280;53303;47.476;8.084;2022-07-29T06:16:30;96390.63;;;23.67;57.16
66486;BME280;53303;47.476;8.084;2022-07-29T06:18:55;96385.28;;;23.69;56.51
66486;BME280;53303;47.476;8.084;2022-07-29T06:21:21;96393.13;;;23.76;56.46
66486;BME280;53303;47.476;8.084;2022-07-29T06:23:46;96401.75;;;23.78;56.06
66486;BME280;53303;47.476;8.084;2022-07-29T06:26:11;96397.97;;;23.81;55.93
66486;BME280;53303;47.476;8.084;2022-07-29T06:28:37;96407.34;;;23.84;55.83
66486;BME280;53303;47.476;8.084;2022-07-29T06:31:02;96412.41;;;23.85;55.62
66486;BME280;53303;47.476;8.084;2022-07-29T06:33:28;96409.38;;;23.83;55.59
66486;BME280;53303;47.476;8.084;2022-07-29T06:35:57;96411.91;;;23.87;55.16
66486;BME280;53303;47.476;8.084;2022-07-29T06:38:25;96412.66;;;23.87;55.20
66486;BME280;53303;47.476;8.084;2022-07-29T06:40:53;96410.38;;;23.86;55.15
66486;BME280;53303;47.476;8.084;2022-07-29T06:43:41;96417.50;;;23.87;54.96
66486;BME280;53303;47.476;8.084;2022-07-29T06:46:11;96418.97;;;23.93;54.79
66486;BME280;53303;47.476;8.084;2022-07-29T06:48:38;96416.69;;;23.92;54.77
66486;BME280;53303;47.476;8.084;2022-07-29T06:51:06;96423.53;;;23.97;54.44
66486;BME280;53303;47.476;8.084;2022-07-29T06:53:32;96419.22;;;23.95;54.34
66486;BME280;53303;47.476;8.084;2022-07-29T06:55:59;96411.38;;;23.94;54.58
66486;BME280;53303;47.476;8.084;2022-07-29T06:58:28;96412.88;;;24.01;54.47
66486;BME280;53303;47.476;8.084;2022-07-29T07:00:55;96404.00;;;24.02;54.10
66486;BME280;53303;47.476;8.084;2022-07-29T07:03:21;96411.38;;;24.00;54.12
66486;BME280;53303;47.476;8.084;2022-07-29T07:05:48;96417.44;;;24.04;53.83
66486;BME280;53303;47.476;8.084;2022-07-29T07:08:18;96413.66;;;24.01;53.71
66486;BME280;53303;47.476;8.084;2022-07-29T07:10:45;96418.97;;;24.05;53.77
66486;BME280;53303;47.476;8.084;2022-07-29T07:13:10;96415.16;;;24.02;53.62
66486;BME280;53303;47.476;8.084;2022-07-29T07:15:36;96423.50;;;24.08;53.44
66486;BME280;53303;47.476;8.084;2022-07-29T07:18:03;96415.13;;;24.08;53.57
66486;BME280;53303;47.476;8.084;2022-07-29T07:20:28;96415.41;;;24.04;53.39
66486;BME280;53303;47.476;8.084;2022-07-29T07:22:56;96425.53;;;24.07;53.45
66486;BME280;53303;47.476;8.084;2022-07-29T07:25:21;96426.03;;;24.06;53.31
66486;BME280;53303;47.476;8.084;2022-07-29T07:27:47;96440.75;;;24.12;53.40
66486;BME280;53303;47.476;8.084;2022-07-29T07:30:13;96433.88;;;24.13;53.41
66486;BME280;53303;47.476;8.084;2022-07-29T07:32:41;96439.47;;;24.13;53.34
66486;BME280;53303;47.476;8.084;2022-07-29T07:35:08;96443.28;;;24.16;53.15
66486;BME280;53303;47.476;8.084;2022-07-29T07:37:34;96434.16;;;24.09;52.99
66486;BME280;53303;47.476;8.084;2022-07-29T07:40:00;96443.28;;;24.16;52.79
66486;BME280;53303;47.476;8.084;2022-07-29T07:42:25;96442.50;;;24.09;51.54
66486;BME280;53303;47.476;8.084;2022-07-29T07:44:51;96445.09;;;23.90;48.99
66486;BME280;53303;47.476;8.084;2022-07-29T07:47:19;96457.78;;;23.80;46.58
66486;BME280;53303;47.476;8.084;2022-07-29T07:49:48;96455.72;;;23.64;46.05
66486;BME280;53303;47.476;8.084;2022-07-29T07:52:16;96452.69;;;23.56;50.17
66486;BME280;53303;47.476;8.084;2022-07-29T07:54:42;96457.50;;;23.55;52.64
66486;BME280;53303;47.476;8.084;2022-07-29T07:57:14;96459.53;;;23.55;54.62
66486;BME280;53303;47.476;8.084;2022-07-29T07:59:40;96464.06;;;23.58;53.04
66486;BME280;53303;47.476;8.084;2022-07-29T08:02:05;96466.84;;;23.52;49.27
66486;BME280;53303;47.476;8.084;2022-07-29T08:04:32;96461.53;;;23.43;50.98
66486;BME280;53303;47.476;8.084;2022-07-29T08:06:58;96463.56;;;23.43;54.10
66486;BME280;53303;47.476;8.084;2022-07-29T08:09:25;96455.72;;;23.47;56.21
66486;BME280;53303;47.476;8.084;2022-07-29T08:11:53;96449.91;;;23.45;56.81
66486;BME280;53303;47.476;8.084;2022-07-29T08:14:19;96443.81;;;23.46;57.15
66486;BME280;53303;47.476;8.084;2022-07-29T08:16:47;96453.97;;;23.55;57.04
66486;BME280;53303;47.476;8.084;2022-07-29T08:19:12;96450.41;;;23.54;53.31
66486;BME280;53303;47.476;8.084;2022-07-29T08:21:38;96451.41;;;23.46;51.22
66486;BME280;53303;47.476;8.084;2022-07-29T08:24:04;96460.00;;;23.42;54.04
66486;BME280;53303;47.476;8.084;2022-07-29T08:26:51;96455.72;;;23.41;56.32
66486;BME280;53303;47.476;8.084;2022-07-29T08:29:19;96455.47;;;23.39;57.07
66486;BME280;53303;47.476;8.084;2022-07-29T08:31:47;96456.22;;;23.45;56.88
66486;BME280;53303;47.476;8.084;2022-07-29T08:34:12;96456.47;;;23.47;56.59
66486;BME280;53303;47.476;8.084;2022-07-29T08:36:38;96455.47;;;23.50;53.51
66486;BME280;53303;47.476;8.084;2022-07-29T08:39:03;96449.66;;;23.37;51.73
66486;BME280;53303;47.476;8.084;2022-07-29T08:41:29;96462.53;;;23.40;54.67
66486;BME280;53303;47.476;8.084;2022-07-29T08:43:55;96466.63;;;23.39;56.51
66486;BME280;53303;47.476;8.084;2022-07-29T08:46:22;96447.38;;;23.35;57.47
66486;BME280;53303;47.476;8.084;2022-07-29T08:48:50;96450.91;;;23.42;57.88
66486;BME280;53303;47.476;8.084;2022-07-29T08:51:19;96454.19;;;23.40;54.10
66486;BME280;53303;47.476;8.084;2022-07-29T08:53:50;96467.63;;;23.36;50.01
66486;BME280;53303;47.476;8.084;2022-07-29T08:56:19;96464.81;;;23.30;53.03
66486;BME280;53303;47.476;8.084;2022-07-29T08:58:46;96456.97;;;23.29;55.75
66486;BME280;53303;47.476;8.084;2022-07-29T09:01:16;96457.47;;;23.33;56.89
66486;BME280;53303;47.476;8.084;2022-07-29T09:03:45;96449.38;;;23.29;52.72
66486;BME280;53303;47.476;8.084;2022-07-29T09:06:17;96457.72;;;23.24;49.37
66486;BME280;53303;47.476;8.084;2022-07-29T09:08:47;96446.84;;;23.20;52.48
66486;BME280;53303;47.476;8.084;2022-07-29T09:11:13;96443.56;;;23.22;55.09
66486;BME280;53303;47.476;8.084;2022-07-29T09:13:41;96444.06;;;23.26;55.17
66486;BME280;53303;47.476;8.084;2022-07-29T09:16:07;96445.09;;;23.23;50.96
66486;BME280;53303;47.476;8.084;2022-07-29T09:18:44;96448.34;;;23.15;49.84
66486;BME280;53303;47.476;8.084;2022-07-29T09:21:14;96459.75;;;23.17;53.50
66486;BME280;53303;47.476;8.084;2022-07-29T09:24:10;96452.41;;;23.14;50.56
66486;BME280;53303;47.476;8.084;2022-07-29T09:26:39;96441.75;;;23.13;48.29
66486;BME280;53303;47.476;8.084;2022-07-29T09:29:23;96455.63;;;23.02;46.88
66486;BME280;53303;47.476;8.084;2022-07-29T09:31:52;96442.22;;;23.00;46.15
66486;BME280;53303;47.476;8.084;2022-07-29T09:34:26;96452.06;;;23.01;45.69
66486;BME280;53303;47.476;8.084;2022-07-29T09:36:54;96445.00;;;23.00;45.35
66486;BME280;53303;47.476;8.084;2022-07-29T09:42:02;96440.44;;;22.97;45.12
66486;BME280;53303;47.476;8.084;2022-07-29T09:44:48;96435.38;;;22.90;45.00
66486;BME280;53303;47.476;8.084;2022-07-29T09:47:18;96442.72;;;22.93;44.75
66486;BME280;53303;47.476;8.084;2022-07-29T09:52:15;96438.41;;;22.92;51.13
66486;BME280;53303;47.476;8.084;2022-07-29T09:54:40;96436.91;;;22.96;48.84
66486;BME280;53303;47.476;8.084;2022-07-29T09:57:29;96442.22;;;22.94;46.75
66486;BME280;53303;47.476;8.084;2022-07-29T10:00:03;96428.06;;;22.92;45.85
66486;BME280;53303;47.476;8.084;2022-07-29T10:02:33;96427.00;;;22.90;45.45
66486;BME280;53303;47.476;8.084;2022-07-29T10:05:00;96427.00;;;22.90;45.33
66486;BME280;53303;47.476;8.084;2022-07-29T10:07:52;96425.72;;;22.85;44.97
66486;BME280;53303;47.476;8.084;2022-07-29T10:10:29;96419.16;;;22.83;44.82
66486;BME280;53303;47.476;8.084;2022-07-29T10:13:06;96418.91;;;22.86;44.44
66486;BME280;53303;47.476;8.084;2022-07-29T10:15:36;96411.81;;;22.79;44.71
66486;BME280;53303;47.476;8.084;2022-07-29T10:18:08;96416.38;;;22.83;44.62
66486;BME280;53303;47.476;8.084;2022-07-29T10:27:20;96426.22;;;22.78;44.34
66486;BME280;53303;47.476;8.084;2022-07-29T10:53:52;96436.81;;;22.68;43.61
66486;BME280;53303;47.476;8.084;2022-07-29T10:56:58;96424.94;;;22.68;43.57
66486;BME280;53303;47.476;8.084;2022-07-29T11:02:59;96414.56;;;22.74;49.73
66486;BME280;53303;47.476;8.084;2022-07-29T11:05:56;96406.00;;;22.77;47.35
66486;BME280;53303;47.476;8.084;2022-07-29T11:11:59;96415.56;;;22.71;44.61
66486;BME280;53303;47.476;8.084;2022-07-29T11:17:22;96420.88;;;22.69;43.64
66486;BME280;53303;47.476;8.084;2022-07-29T11:19:47;96419.41;;;22.73;45.93
66486;BME280;53303;47.476;8.084;2022-07-29T11:22:32;96382.16;;;22.48;49.56
66486;BME280;53303;47.476;8.084;2022-07-29T11:25:18;96413.31;;;22.69;46.52
66486;BME280;53303;47.476;8.084;2022-07-29T11:27:54;96425.22;;;22.75;44.72
66486;BME280;53303;47.476;8.084;2022-07-29T11:30:52;96415.84;;;22.73;47.67
66486;BME280;53303;47.476;8.084;2022-07-29T11:33:32;96418.13;;;22.74;48.95
66486;BME280;53303;47.476;8.084;2022-07-29T11:36:11;96414.59;;;22.79;46.06
66486;BME280;53303;47.476;8.084;2022-07-29T11:41:44;96421.94;;;22.77;47.11
66486;BME280;53303;47.476;8.084;2022-07-29T11:44:15;96417.63;;;22.76;49.33
66486;BME280;53303;47.476;8.084;2022-07-29T11:46:50;96423.19;;;22.81;46.51
66486;BME280;53303;47.476;8.084;2022-07-29T11:49:25;96412.56;;;22.74;44.92
66486;BME280;53303;47.476;8.084;2022-07-29T11:51:52;96406.47;;;22.70;48.88
66486;BME280;53303;47.476;8.084;2022-07-29T11:54:32;96426.25;;;22.84;49.20
66486;BME280;53303;47.476;8.084;2022-07-29T11:57:07;96433.56;;;22.81;46.60
66486;BME280;53303;47.476;8.084;2022-07-29T11:59:47;96431.28;;;22.85;50.14
66486;BME280;53303;47.476;8.084;2022-07-29T12:02:14;96441.44;;;22.88;48.37
66486;BME280;53303;47.476;8.084;2022-07-29T12:04:56;96434.84;;;22.80;47.07
66486;BME280;53303;47.476;8.084;2022-07-29T12:07:34;96436.38;;;22.87;50.34
66486;BME280;53303;47.476;8.084;2022-07-29T12:10:05;96434.84;;;22.86;46.97
66486;BME280;53303;47.476;8.084;2022-07-29T12:12:40;96441.66;;;22.85;49.31
66486;BME280;53303;47.476;8.084;2022-07-29T12:15:15;96437.13;;;22.87;48.30
66486;BME280;53303;47.476;8.084;2022-07-29T12:17:43;96438.16;;;22.90;47.01
66486;BME280;53303;47.476;8.084;2022-07-29T12:20:11;96413.56;;;22.71;50.22
66486;BME280;53303;47.476;8.084;2022-07-29T12:22:44;96434.13;;;22.91;47.17
66486;BME280;53303;47.476;8.084;2022-07-29T12:25:16;96407.75;;;22.69;45.56
66486;BME280;53303;47.476;8.084;2022-07-29T12:27:49;96435.59;;;22.86;49.51
66486;BME280;53303;47.476;8.084;2022-07-29T12:30:22;96452.56;;;22.88;47.37
66486;BME280;53303;47.476;8.084;2022-07-29T12:32:54;96442.16;;;22.72;44.97
66486;BME280;53303;47.476;8.084;2022-07-29T12:35:20;96434.28;;;22.70;48.64
66486;BME280;53303;47.476;8.084;2022-07-29T12:37:47;96437.59;;;22.74;47.60
66486;BME280;53303;47.476;8.084;2022-07-29T12:40:17;96453.56;;;22.85;44.91
66486;BME280;53303;47.476;8.084;2022-07-29T12:45:33;96456.81;;;22.78;47.74
66486;BME280;53303;47.476;8.084;2022-07-29T12:47:59;96445.19;;;22.74;46.82
66486;BME280;53303;47.476;8.084;2022-07-29T12:50:24;96458.38;;;22.85;49.60
66486;BME280;53303;47.476;8.084;2022-07-29T12:53:08;96454.03;;;22.78;46.26
66486;BME280;53303;47.476;8.084;2022-07-29T12:55:46;96455.06;;;22.80;48.47
66486;BME280;53303;47.476;8.084;2022-07-29T12:58:38;96459.09;;;22.79;47.52
66486;BME280;53303;47.476;8.084;2022-07-29T13:11:51;96462.16;;;22.81;46.84
66486;BME280;53303;47.476;8.084;2022-07-29T13:17:08;96466.47;;;22.88;48.48
66486;BME280;53303;47.476;8.084;2022-07-29T13:19:42;96469.50;;;22.85;47.90
66486;BME280;53303;47.476;8.084;2022-07-29T13:22:15;96474.81;;;22.88;49.99
66486;BME280;53303;47.476;8.084;2022-07-29T13:27:25;96467.75;;;22.93;48.33
66486;BME280;53303;47.476;8.084;2022-07-29T13:29:55;96465.22;;;22.89;49.75
66486;BME280;53303;47.476;8.084;2022-07-29T13:32:26;96458.88;;;22.83;49.32
66486;BME280;53303;47.476;8.084;2022-07-29T13:34:58;96470.28;;;22.91;46.31
66486;BME280;53303;47.476;8.084;2022-07-29T13:37:24;96482.91;;;22.86;48.92
66486;BME280;53303;47.476;8.084;2022-07-29T13:39:55;96483.41;;;22.85;46.24
66486;BME280;53303;47.476;8.084;2022-07-29T13:42:22;96488.75;;;22.88;48.16
66486;BME280;53303;47.476;8.084;2022-07-29T13:44:47;96500.91;;;22.91;49.53
66486;BME280;53303;47.476;8.084;2022-07-29T13:47:20;96498.63;;;22.95;48.14
66486;BME280;53303;47.476;8.084;2022-07-29T13:49:53;96508.22;;;22.88;47.25
66486;BME280;53303;47.476;8.084;2022-07-29T13:52:19;96504.69;;;22.93;46.99
66486;BME280;53303;47.476;8.084;2022-07-29T13:54:45;96524.28;;;23.10;47.24
66486;BME280;53303;47.476;8.084;2022-07-29T13:57:11;96520.75;;;23.21;47.42
66486;BME280;53303;47.476;8.084;2022-07-29T13:59:36;96505.81;;;23.18;47.92
66486;BME280;53303;47.476;8.084;2022-07-29T14:02:09;96498.25;;;23.25;48.20
66486;BME280;53303;47.476;8.084;2022-07-29T14:04:43;96523.81;;;23.29;48.64
66486;BME280;53303;47.476;8.084;2022-07-29T14:07:08;96510.38;;;23.38;48.18
66486;BME280;53303;47.476;8.084;2022-07-29T14:09:35;96524.59;;;23.57;48.30
66486;BME280;53303;47.476;8.084;2022-07-29T14:12:01;96516.75;;;23.56;48.84
66486;BME280;53303;47.476;8.084;2022-07-29T14:14:28;96513.97;;;23.62;49.02
66486;BME280;53303;47.476;8.084;2022-07-29T14:16:54;96523.09;;;23.68;49.75
66486;BME280;53303;47.476;8.084;2022-07-29T14:19:19;96513.22;;;23.67;49.74
66486;BME280;53303;47.476;8.084;2022-07-29T14:21:44;96530.72;;;23.84;50.32
66486;BME280;53303;47.476;8.084;2022-07-29T14:24:13;96534.81;;;23.89;50.67
66486;BME280;53303;47.476;8.084;2022-07-29T14:26:44;96537.09;;;23.90;51.01
66486;BME280;53303;47.476;8.084;2022-07-29T14:29:13;96534.78;;;23.94;51.36
66486;BME280;53303;47.476;8.084;2022-07-29T14:31:38;96541.13;;;24.01;51.91